Norman Wells Airport

Current Flights

Info
Name: Norman Wells Airport
Identifier:  YVQ/CYVQ
Local Time:  20. May 21:02
City
Norman Wells
  Canada

Flights per Day
7 flights
Distance: 318km (198mi)
Punctuality
92% (0 flights per day delayed)
Delay Average: 49 minutes
Current Weather
 19 C (Humidity: 42%)
  15kt (27km/h / 17mph) from 130°
20 knots Gusts

  Scattered clouds at 12,000 feet (3,657 meter)
  Scattered clouds at 15,000 feet (4,572 meter)
  Broken clouds at 22,000 feet (6,705 meter)
  48km (29 mi.)
 METAR CYVQ 210200Z 13015G20KT 30SM SCT120 SCT150 BKN220 19/06 A2994 RMK AC3AC1CI1 SLP143 DENSITY ALT 800FT

Current Delays

Departures
N/A
Arrivals
N/A

Destinations

Top Destinations
Airport Flights
per week
Seats
per week
  Yellowknife (YZF) <1 91 0 13
  Inuvik (YEV) <1 63 0 9
  Edmonton (YEG) <1 21 0 3

Airlines & Planes

Top Airlines
Airline Flights
per Day
Seats
per Day
  Canadian North <1 26
  Kenn Borek Air <1 -
Top Plane Types
Manufacturer Model Flights Seats
Boeing B737-300 0.2/day 22/day 22.666666666666668
Boeing B737-200 0.0/day 3/day 3.7333333333333334